sensor_id;sensor_type;location;lat;lon;timestamp;pressure;altitude;pressure_sealevel;temperature;humidity
71642;BME280;60657;50.122;14.468;2022-08-03T00:02:12;98373.30616436168;;;23.485923552300292;53.340428778515296
71642;BME280;60657;50.122;14.468;2022-08-03T00:05:13;98377.78979959649;;;23.45387960631723;53.359502555886166
71642;BME280;60657;50.122;14.468;2022-08-03T00:08:14;98367.47763728106;;;23.472571908140694;53.39765011062791
71642;BME280;60657;50.122;14.468;2022-08-03T00:11:15;98358.8832001763;;;23.485923552300292;53.321355001144426
71642;BME280;60657;50.122;14.468;2022-08-03T00:14:16;98357.31476238577;;;23.467231250476843;53.407186999313346
71642;BME280;60657;50.122;14.468;2022-08-03T00:17:17;98354.62337624466;;;23.49660486762798;53.56549935149157
71642;BME280;60657;50.122;14.468;2022-08-03T00:20:18;98361.19788818173;;;23.499275196459905;53.52925917448692
71642;BME280;60657;50.122;14.468;2022-08-03T00:23:19;98358.80785618615;;;23.49393453879607;53.489204242008086
71642;BME280;60657;50.122;14.468;2022-08-03T00:26:20;98351.10963713167;;;23.52597848477913;53.59601739528496
71642;BME280;60657;50.122;14.468;2022-08-03T00:29:21;98357.91060606802;;;23.509956511787593;53.55214770733196
71642;BME280;60657;50.122;14.468;2022-08-03T00:32:22;98358.80785618615;;;23.523308155947205;53.74479285877775
71642;BME280;60657;50.122;14.468;2022-08-03T00:35:23;98356.19149128135;;;23.48325322346838;53.769588769359885
71642;BME280;60657;50.122;14.468;2022-08-03T00:38:24;98358.80785618615;;;23.488593881132218;53.83825436789502
71642;BME280;60657;50.122;14.468;2022-08-03T00:41:25;98361.19788818173;;;23.499275196459905;53.91264209964141
71642;BME280;60657;50.122;14.468;2022-08-03T00:44:26;98351.93139495398;;;23.48325322346838;53.95269703212024
71642;BME280;60657;50.122;14.468;2022-08-03T00:47:27;98350.95814353938;;;23.558022430762193;53.750514991989014
71642;BME280;60657;50.122;14.468;2022-08-03T00:50:29;98354.24510997663;;;23.528648813611042;53.92217898832685
71642;BME280;60657;50.122;14.468;2022-08-03T00:53:33;98351.26076869092;;;23.464560921644917;54.25978484779126
71642;BME280;60657;50.122;14.468;2022-08-03T00:56:36;98353.43058758185;;;23.36575875486382;54.4448004882887
71642;BME280;60657;50.122;14.468;2022-08-03T00:59:37;98349.6942615827;;;23.272297245746543;54.635538261997404
71642;BME280;60657;50.122;14.468;2022-08-03T01:02:38;98353.27874133711;;;23.25627527275502;54.80910963607233
71642;BME280;60657;50.122;14.468;2022-08-03T01:05:43;98351.63484965009;;;23.192187380788894;54.96932936598764
71642;BME280;60657;50.122;14.468;2022-08-03T01:08:53;98356.71454470287;;;23.216220340276195;54.898756389715416
71642;BME280;60657;50.122;14.468;2022-08-03T01:12:07;98357.00942130582;;;23.160143434805832;55.169604028381784
71642;BME280;60657;50.122;14.468;2022-08-03T01:15:14;98359.62247117066;;;23.14679179064622;55.15815976195926
71642;BME280;60657;50.122;14.468;2022-08-03T01:18:30;98357.00942130582;;;23.176165407797356;55.181048294804306
71642;BME280;60657;50.122;14.468;2022-08-03T01:21:39;98354.92264613841;;;23.200198367284656;55.240177004654
71642;BME280;60657;50.122;14.468;2022-08-03T01:24:57;98349.84279713966;;;23.168154421301594;55.245899137865266
71642;BME280;60657;50.122;14.468;2022-08-03T01:28:11;98357.15631735633;;;23.077363241016258;55.514839398794535
71642;BME280;60657;50.122;14.468;2022-08-03T01:31:27;98366.5407847797;;;22.943846799420157;55.88487067978942
71642;BME280;60657;50.122;14.468;2022-08-03T01:34:33;98360.53549448276;;;22.78095674067292;56.30258640421149
71642;BME280;60657;50.122;14.468;2022-08-03T01:37:42;98355.27520361112;;;22.68749523155566;56.5810635538262
71642;BME280;60657;50.122;14.468;2022-08-03T01:40:49;98354.80420790525;;;22.580682078278784;56.83283741512169
71642;BME280;60657;50.122;14.468;2022-08-03T01:43:54;98357.21430661275;;;22.38307774471656;57.60341802090486
71642;BME280;60657;50.122;14.468;2022-08-03T01:47:00;98354.6084778229;;;22.436484321354996;57.561455710688946
71642;BME280;60657;50.122;14.468;2022-08-03T01:50:04;98353.71672607824;;;22.452506294346534;57.475623712520026
71642;BME280;60657;50.122;14.468;2022-08-03T01:53:06;98351.59454053473;;;22.332341496910047;58.127946898603795
71642;BME280;60657;50.122;14.468;2022-08-03T01:56:10;98356.52973439444;;;22.41245136186771;58.009689478904406
71642;BME280;60657;50.122;14.468;2022-08-03T01:59:13;98348.30447758215;;;22.324330510414285;58.22140840772107
71642;BME280;60657;50.122;14.468;2022-08-03T02:02:18;98354.81407205568;;;22.20950637064165;58.509422446021205
71642;BME280;60657;50.122;14.468;2022-08-03T02:05:22;98358.85938587152;;;22.23620965896086;58.56664377813382
71642;BME280;60657;50.122;14.468;2022-08-03T02:08:26;98358.7902209596;;;22.40711070420386;58.43503471427482
71642;BME280;60657;50.122;14.468;2022-08-03T02:11:31;98353.15940755702;;;22.45784695201037;58.31486991683833
71642;BME280;60657;50.122;14.468;2022-08-03T02:14:35;98345.75796966066;;;22.44983596551461;58.425497825589375
71642;BME280;60657;50.122;14.468;2022-08-03T02:17:39;98349.32663607625;;;22.463187609674222;58.57236591134509
71642;BME280;60657;50.122;14.468;2022-08-03T02:20:47;98349.46568128503;;;22.433813992523085;58.70778973067826
71642;BME280;60657;50.122;14.468;2022-08-03T02:23:49;98345.75796966066;;;22.46852826733806;58.475089646753645
71642;BME280;60657;50.122;14.468;2022-08-03T02:26:50;98346.58033842074;;;22.50057221332112;58.28053711757076
71642;BME280;60657;50.122;14.468;2022-08-03T02:29:57;98349.72969925372;;;22.54329747463187;57.9810788128481
71642;BME280;60657;50.122;14.468;2022-08-03T02:33:04;98345.47752321397;;;22.537956816968034;58.05355916685741
71642;BME280;60657;50.122;14.468;2022-08-03T02:36:10;98343.77797690763;;;22.417792019531547;58.44266422522317
71642;BME280;60657;50.122;14.468;2022-08-03T02:39:19;98352.89669239345;;;22.324330510414285;58.660105287251085
71642;BME280;60657;50.122;14.468;2022-08-03T02:42:24;98348.57888274534;;;22.308308537422747;58.92523079270619
71642;BME280;60657;50.122;14.468;2022-08-03T02:45:29;98351.65897710303;;;22.185473411154348;59.46692607003891
71642;BME280;60657;50.122;14.468;2022-08-03T02:48:36;98352.19723980343;;;22.030594338902873;60.11161974517434
71642;BME280;60657;50.122;14.468;2022-08-03T02:51:41;98352.26411799484;;;22.08934157320516;60.02769512474251
71642;BME280;60657;50.122;14.468;2022-08-03T02:54:44;98351.30754663364;;;22.03860532539865;60.353856717784396
71642;BME280;60657;50.122;14.468;2022-08-03T02:57:49;98355.75535395848;;;21.995880064087885;60.63614862287328
71642;BME280;60657;50.122;14.468;2022-08-03T03:00:52;98359.57684315977;;;21.91844052796216;61.05577172503243
71642;BME280;60657;50.122;14.468;2022-08-03T03:03:55;98348.05673814772;;;21.830319676508736;61.42580300602731
71642;BME280;60657;50.122;14.468;2022-08-03T03:06:59;98355.75535395848;;;21.93179217212176;61.259861142900746
71642;BME280;60657;50.122;14.468;2022-08-03T03:10:02;98357.79908067106;;;21.80895704585336;61.68902113374533
71642;BME280;60657;50.122;14.468;2022-08-03T03:13:04;98357.79908067106;;;21.832990005340662;61.78629739833677
71642;BME280;60657;50.122;14.468;2022-08-03T03:16:09;98356.24394695956;;;21.958495460440986;61.58793011367972
71642;BME280;60657;50.122;14.468;2022-08-03T03:19:13;98358.92734684995;;;22.051956969558248;61.11490043488213
71642;BME280;60657;50.122;14.468;2022-08-03T03:22:16;98365.64457734929;;;22.07064927138171;60.97375448233768
71642;BME280;60657;50.122;14.468;2022-08-03T03:25:19;98361.46325371937;;;22.148088807507435;60.81162737468529
71642;BME280;60657;50.122;14.468;2022-08-03T03:28:21;98365.2271012246;;;22.067978942549786;60.99092088197146
71642;BME280;60657;50.122;14.468;2022-08-03T03:31:24;98371.22956635372;;;21.88105592431525;61.77866788738842
71642;BME280;60657;50.122;14.468;2022-08-03T03:34:25;98370.47244998187;;;21.8383306630045;61.71572442206454
71642;BME280;60657;50.122;14.468;2022-08-03T03:37:28;98371.22956635372;;;21.80895704585336;61.87594415197985
71642;BME280;60657;50.122;14.468;2022-08-03T03:40:29;98370.99591401125;;;21.688792248416874;63.23971923399711
71642;BME280;60657;50.122;14.468;2022-08-03T03:43:30;98373.53012398645;;;21.7154955367361;63.377050431067374
71642;BME280;60657;50.122;14.468;2022-08-03T03:46:32;98372.40108056912;;;21.560616464484625;64.59777218280308
71642;BME280;60657;50.122;14.468;2022-08-03T03:49:33;98380.25787048982;;;21.475165941863125;65.30922407873655
71642;BME280;60657;50.122;14.468;2022-08-03T03:52:36;98379.8785427307;;;21.33096818493935;65.98062104219119
71642;BME280;60657;50.122;14.468;2022-08-03T03:55:37;98376.0135094205;;;21.312275883115888;66.25528343633174
71642;BME280;60657;50.122;14.468;2022-08-03T03:58:38;98381.51474494707;;;21.237506675822075;66.58716716258488
71642;BME280;60657;50.122;14.468;2022-08-03T04:01:39;98379.41429833951;;;21.069275959411;67.22613870450904
71642;BME280;60657;50.122;14.468;2022-08-03T04:04:40;98381.06130658826;;;21.13603418020905;67.32341496910048
71642;BME280;60657;50.122;14.468;2022-08-03T04:07:43;98376.63595056445;;;21.168078126192114;67.06019684138246
71642;BME280;60657;50.122;14.468;2022-08-03T04:10:58;98381.57664739544;;;21.17341878385595;67.05065995269703
71642;BME280;60657;50.122;14.468;2022-08-03T04:14:15;98380.87670510428;;;21.106660563057915;67.35774776836804
71642;BME280;60657;50.122;14.468;2022-08-03T04:17:20;98381.70018349725;;;21.17341878385595;67.28145265888456
71642;BME280;60657;50.122;14.468;2022-08-03T04:20:27;98382.6468635175;;;21.08529793240254;67.35393301289388
71642;BME280;60657;50.122;14.468;2022-08-03T04:23:33;98375.56465285667;;;21.18944075684749;67.06973373006791
71642;BME280;60657;50.122;14.468;2022-08-03T04:26:39;98383.03753542414;;;21.240177004654;67.06019684138246
71642;BME280;60657;50.122;14.468;2022-08-03T04:29:45;98389.74940559544;;;21.234836346990164;67.00297550926986
71642;BME280;60657;50.122;14.468;2022-08-03T04:32:49;98392.1577436448;;;21.314946211947813;66.6443884946975
71642;BME280;60657;50.122;14.468;2022-08-03T04:35:51;98397.98440179798;;;21.28290226596475;66.50324254215305
71642;BME280;60657;50.122;14.468;2022-08-03T04:38:59;98402.86330128908;;;21.39238574807355;66.22095063706416
71642;BME280;60657;50.122;14.468;2022-08-03T04:42:05;98405.84458603305;;;21.432440680552375;66.02639810788129
71642;BME280;60657;50.122;14.468;2022-08-03T04:45:10;98402.23577660744;;;21.4591439688716;66.07408255130846
71642;BME280;60657;50.122;14.468;2022-08-03T04:48:13;98403.88262987127;;;21.533913176165413;66.0531013962005
71642;BME280;60657;50.122;14.468;2022-08-03T04:51:15;98407.74601109061;;;21.619363698786913;65.62203402761882
71642;BME280;60657;50.122;14.468;2022-08-03T04:54:16;98411.35690463908;;;21.576638437476163;66.08743419546808
71642;BME280;60657;50.122;14.468;2022-08-03T04:57:17;98414.14248693081;;;21.5579461356527;66.11795223926147
71642;BME280;60657;50.122;14.468;2022-08-03T05:00:19;98421.36530729865;;;21.611352712291136;65.91577019913024
71642;BME280;60657;50.122;14.468;2022-08-03T05:03:20;98418.8315461305;;;21.549935149156937;66.20378423743038
71642;BME280;60657;50.122;14.468;2022-08-03T05:06:21;98423.51879470369;;;21.664759288929574;65.76508735790036
71642;BME280;60657;50.122;14.468;2022-08-03T05:09:22;98427.44477938215;;;21.71816586556801;65.67544060425726
71642;BME280;60657;50.122;14.468;2022-08-03T05:12:23;98432.19319180836;;;21.8623636224918;65.72503242542153
71642;BME280;60657;50.122;14.468;2022-08-03T05:15:24;98422.4237883511;;;21.982528419928286;64.79613946746014
71642;BME280;60657;50.122;14.468;2022-08-03T05:18:25;98419.69256339537;;;22.006561379415587;64.65880827038987
71642;BME280;60657;50.122;14.468;2022-08-03T05:21:26;98430.0291502409;;;21.897077897306787;65.08606088349737
71642;BME280;60657;50.122;14.468;2022-08-03T05:24:27;98427.94723335015;;;21.830319676508736;65.6849774929427
71642;BME280;60657;50.122;14.468;2022-08-03T05:27:28;98430.80267334115;;;21.865033951323724;65.66399633783475
71642;BME280;60657;50.122;14.468;2022-08-03T05:30:29;98430.15896937433;;;21.987869077592123;65.16044861524377
71642;BME280;60657;50.122;14.468;2022-08-03T05:33:31;98426.73567754825;;;22.025253681239036;65.3912413214313
71642;BME280;60657;50.122;14.468;2022-08-03T05:36:32;98425.78224257246;;;21.993209735255974;65.22720683604182
71642;BME280;60657;50.122;14.468;2022-08-03T05:39:35;98443.96178286566;;;22.086671244373235;65.3912413214313
71642;BME280;60657;50.122;14.468;2022-08-03T05:42:36;98423.14885724508;;;22.276264591439684;65.2138551918822
71642;BME280;60657;50.122;14.468;2022-08-03T05:45:37;98425.15078449991;;;22.377737087052722;64.44518196383612
71642;BME280;60657;50.122;14.468;2022-08-03T05:48:39;98432.69317206247;;;22.356374456397347;64.6244754711223
71642;BME280;60657;50.122;14.468;2022-08-03T05:51:40;98430.37225272518;;;22.553978789959558;64.38033112077515
71642;BME280;60657;50.122;14.468;2022-08-03T05:54:42;98432.43215316697;;;22.650110627908745;63.79095140001526
71642;BME280;60657;50.122;14.468;2022-08-03T05:57:44;98427.28060134746;;;22.79697871366446;63.30647745479514
71642;BME280;60657;50.122;14.468;2022-08-03T06:00:46;98427.48954348422;;;22.74357213702602;63.25688563363089
71642;BME280;60657;50.122;14.468;2022-08-03T06:03:47;98428.7864733015;;;22.91714351110093;63.15579461356528
71642;BME280;60657;50.122;14.468;2022-08-03T06:06:49;98421.57132342072;;;22.887769893949795;62.93644617380026
71642;BME280;60657;50.122;14.468;2022-08-03T06:09:51;98426.29479957998;;;22.95185778591592;63.02800030518044
71642;BME280;60657;50.122;14.468;2022-08-03T06:12:52;98426.90390426599;;;23.015945677882044;62.5778591592279
71642;BME280;60657;50.122;14.468;2022-08-03T06:15:53;98426.9363708401;;;23.253604943923094;61.7958342870222
71642;BME280;60657;50.122;14.468;2022-08-03T06:18:54;98430.32074009132;;;23.437857633325706;61.32089723048753
71642;BME280;60657;50.122;14.468;2022-08-03T06:21:55;98426.21977363748;;;23.616769665064467;61.235065232318604
71642;BME280;60657;50.122;14.468;2022-08-03T06:24:56;98428.61115070354;;;23.779659723811704;60.395819028000304
71642;BME280;60657;50.122;14.468;2022-08-03T06:27:57;98421.36178502403;;;23.712901503013654;60.210803387502864
71642;BME280;60657;50.122;14.468;2022-08-03T06:30:58;98429.49711561482;;;24.097428854810403;59.08735790035858
71642;BME280;60657;50.122;14.468;2022-08-03T06:34:01;98423.6431718621;;;24.15617608911269;59.539406424048224
71642;BME280;60657;50.122;14.468;2022-08-03T06:37:02;98427.67225299195;;;24.57808804455634;58.46936751354238
71642;BME280;60657;50.122;14.468;2022-08-03T06:40:04;98429.67662268458;;;24.826428625925075;57.11512932021058
71642;BME280;60657;50.122;14.468;2022-08-03T06:43:06;98432.3126116283;;;24.973296711680774;57.05981536583505
71642;BME280;60657;50.122;14.468;2022-08-03T06:46:07;98431.48240957831;;;25.42191195544366;56.92820630197604
71642;BME280;60657;50.122;14.468;2022-08-03T06:49:08;98428.32246167578;;;25.63019760433356;55.123826962691695
71642;BME280;60657;50.122;14.468;2022-08-03T06:52:09;98433.34294762617;;;26.01472495613031;54.44670786602579
71642;BME280;60657;50.122;14.468;2022-08-03T06:55:10;98426.54861068852;;;26.142900740062558;54.14915693904021
71642;BME280;60657;50.122;14.468;2022-08-03T06:58:12;98431.69597645607;;;26.38590066376746;53.80010681315328
71642;BME280;60657;50.122;14.468;2022-08-03T07:01:13;98433.26218556505;;;26.663614862287332;52.13305867093919
71642;BME280;60657;50.122;14.468;2022-08-03T07:04:14;98435.89252648;;;26.86388952468147;51.465476462958726
71642;BME280;60657;50.122;14.468;2022-08-03T07:07:15;98433.43169373531;;;26.952010376134893;50.754024567025255
71642;BME280;60657;50.122;14.468;2022-08-03T07:10:16;98426.45003569525;;;27.20302128633554;50.89707789730678
71642;BME280;60657;50.122;14.468;2022-08-03T07:13:17;98434.03843948313;;;27.427328908216978;50.1875333791104
71642;BME280;60657;50.122;14.468;2022-08-03T07:16:19;98417.53901782792;;;27.49408712901503;49.92813000686656
71642;BME280;60657;50.122;14.468;2022-08-03T07:19:20;98420.05323501125;;;27.512779430838478;50.18944075684749
71642;BME280;60657;50.122;14.468;2022-08-03T07:22:21;98424.38880928418;;;27.681010147249566;49.968184939345385
71642;BME280;60657;50.122;14.468;2022-08-03T07:25:22;98421.14771100812;;;27.76379034103914;50.05210955977722
71642;BME280;60657;50.122;14.468;2022-08-03T07:28:23;98417.72774257028;;;27.969405661097127;49.5828946364538
71642;BME280;60657;50.122;14.468;2022-08-03T07:31:24;98419.68576123321;;;28.08690012970169;48.57198443579767
71642;BME280;60657;50.122;14.468;2022-08-03T07:34:25;98422.78101448932;;;28.353933012893876;47.61638818951705
71642;BME280;60657;50.122;14.468;2022-08-03T07:37:26;98418.06981257306;;;28.364614328221563;48.474708171206224
71642;BME280;60657;50.122;14.468;2022-08-03T07:40:28;98422.98212797027;;;28.628976882581824;47.440909437705045
71642;BME280;60657;50.122;14.468;2022-08-03T07:43:29;98422.40342181153;;;28.936064698252835;45.80819409475853
71642;BME280;60657;50.122;14.468;2022-08-03T07:46:30;98418.98971754088;;;29.112306401159685;44.28610666056306
71642;BME280;60657;50.122;14.468;2022-08-03T07:49:38;98419.70141252129;;;29.203097581445036;46.096208133058674
71642;BME280;60657;50.122;14.468;2022-08-03T07:52:40;98417.31367349584;;;29.229800869764247;45.07194628824293
71642;BME280;60657;50.122;14.468;2022-08-03T07:55:41;98415.1378941961;;;29.240482185091935;45.163500419623105
71642;BME280;60657;50.122;14.468;2022-08-03T07:58:42;98414.76261444039;;;29.333943694209196;44.13160906385901
71642;BME280;60657;50.122;14.468;2022-08-03T08:01:43;98419.07212810002;;;29.24315251392386;43.97901884489204
71642;BME280;60657;50.122;14.468;2022-08-03T08:04:44;98423.64614997171;;;29.101625085831998;44.5893797207599
71642;BME280;60657;50.122;14.468;2022-08-03T08:07:45;98409.95456924428;;;29.606317235065234;43.72152285038529
71642;BME280;60657;50.122;14.468;2022-08-03T08:10:46;98407.65507531856;;;29.520866712443734;43.258030060273136
71642;BME280;60657;50.122;14.468;2022-08-03T08:13:48;98402.26057886824;;;29.40871290150301;43.71198596169985
71642;BME280;60657;50.122;14.468;2022-08-03T08:16:49;98410.22005617953;;;29.582284275577933;43.46402685587854
71642;BME280;60657;50.122;14.468;2022-08-03T08:19:50;98414.04891559671;;;29.926756694895857;43.65094987411307
71642;BME280;60657;50.122;14.468;2022-08-03T08:22:51;98398.56469517869;;;30.030899519340807;44.29182879377432
71642;BME280;60657;50.122;14.468;2022-08-03T08:25:54;98409.2294077995;;;30.311284046692606;42.09452964065004
71642;BME280;60657;50.122;14.468;2022-08-03T08:28:55;98391.61428888993;;;30.757228961623554;42.668650339513235
71642;BME280;60657;50.122;14.468;2022-08-03T08:31:56;98397.80016462498;;;30.757228961623554;41.913328755626765
71642;BME280;60657;50.122;14.468;2022-08-03T08:34:57;98398.61739114397;;;30.751888303959717;42.18036163881895
71642;BME280;60657;50.122;14.468;2022-08-03T08:37:59;98394.52389548882;;;30.789272907606616;41.764553292133975
71642;BME280;60657;50.122;14.468;2022-08-03T08:41:00;98396.50191717532;;;30.840009155413142;41.13511863889525
71642;BME280;60657;50.122;14.468;2022-08-03T08:44:02;98397.88229762389;;;31.018921187151903;40.812771801327536
71642;BME280;60657;50.122;14.468;2022-08-03T08:47:04;98398.24011561606;;;31.013580529488067;41.978179598687724
71642;BME280;60657;50.122;14.468;2022-08-03T08:50:09;98385.34131283136;;;31.136415655756466;40.98252841992828
71642;BME280;60657;50.122;14.468;2022-08-03T08:53:10;98394.47327827076;;;31.17380025940338;41.9667353322652
71642;BME280;60657;50.122;14.468;2022-08-03T08:56:13;98381.34824299715;;;31.25925078202488;41.718776226443886
71642;BME280;60657;50.122;14.468;2022-08-03T08:59:16;98381.83259844518;;;31.117723353933016;41.08934157320516
71642;BME280;60657;50.122;14.468;2022-08-03T09:02:18;98380.45773326566;;;31.56633859769589;41.2896162355993
71642;BME280;60657;50.122;14.468;2022-08-03T09:05:20;98377.73784106578;;;31.862745098039213;39.85336079957275
71642;BME280;60657;50.122;14.468;2022-08-03T09:08:21;98382.38594656829;;;31.844052796215763;39.338368810559246
71642;BME280;60657;50.122;14.468;2022-08-03T09:11:22;98379.55908842044;;;32.15915159838255;40.288242923628594
71642;BME280;60657;50.122;14.468;2022-08-03T09:14:24;98367.30870054514;;;32.597085526817736;39.77897306782635
71642;BME280;60657;50.122;14.468;2022-08-03T09:17:37;98364.77004114786;;;32.57839322499427;38.28931105516136
71642;BME280;60657;50.122;14.468;2022-08-03T09:20:39;98376.02049016942;;;32.223239490348675;39.8304722667277
71642;BME280;60657;50.122;14.468;2022-08-03T09:23:45;98369.75577085854;;;32.56237125200275;38.97024490730144
71642;BME280;60657;50.122;14.468;2022-08-03T09:26:48;98367.43982625533;;;32.922865644312196;37.87541008621347
71642;BME280;60657;50.122;14.468;2022-08-03T09:29:51;98373.12079393383;;;32.79736018921187;38.06614785992218
71642;BME280;60657;50.122;14.468;2022-08-03T09:32:58;98373.69962869883;;;32.88815136949721;38.51247425040055
71642;BME280;60657;50.122;14.468;2022-08-03T09:36:00;98366.51619885546;;;32.87747005416952;37.98985275043869
71642;BME280;60657;50.122;14.468;2022-08-03T09:39:02;98358.80016364108;;;33.19256885633631;38.79095140001526
71642;BME280;60657;50.122;14.468;2022-08-03T09:42:05;98349.86153946827;;;33.16319523918517;37.20401312275883
71642;BME280;60657;50.122;14.468;2022-08-03T09:45:08;98348.11216419838;;;33.56107423514153;37.64461738002594
71642;BME280;60657;50.122;14.468;2022-08-03T09:48:27;98349.41703716345;;;33.90821698329137;36.862592507820246
71642;BME280;60657;50.122;14.468;2022-08-03T09:51:32;98340.66719903793;;;34.19127183947509;36.18928816662852
71642;BME280;60657;50.122;14.468;2022-08-03T09:54:33;98337.6165504392;;;33.73731593804837;36.8397039749752
71642;BME280;60657;50.122;14.468;2022-08-03T09:57:34;98344.13220640061;;;33.95628290226597;35.94323643854429
71642;BME280;60657;50.122;14.468;2022-08-03T10:00:51;98343.04034712487;;;34.05508506904708;36.490653849088275
71642;BME280;60657;50.122;14.468;2022-08-03T10:03:56;98344.70812257128;;;34.38086518654154;35.920347905699245
71642;BME280;60657;50.122;14.468;2022-08-03T10:07:02;98340.13977144778;;;34.62386511024643;37.05523765926604
71642;BME280;60657;50.122;14.468;2022-08-03T10:10:06;98336.28572027611;;;35.11253528648814;35.87647821774624
71642;BME280;60657;50.122;14.468;2022-08-03T10:13:07;98338.84542781314;;;34.97901884489204;35.098268101014725
71642;BME280;60657;50.122;14.468;2022-08-03T10:16:11;98333.40656457623;;;35.294117647058826;34.064469367513546
71642;BME280;60657;50.122;14.468;2022-08-03T10:19:12;98332.59306743031;;;35.2914473182269;34.00343327992676
71642;BME280;60657;50.122;14.468;2022-08-03T10:22:14;98335.99338384239;;;35.08583199816891;33.353017471580074
71642;BME280;60657;50.122;14.468;2022-08-03T10:25:19;98327.05835941274;;;35.30746929121844;35.330968184939344
71642;BME280;60657;50.122;14.468;2022-08-03T10:28:20;98323.86214829706;;;35.662623025864036;33.95384145876249
71642;BME280;60657;50.122;14.468;2022-08-03T10:31:22;98319.81195466378;;;35.611886778057524;34.40588998245212
71642;BME280;60657;50.122;14.468;2022-08-03T10:34:25;98331.69263049512;;;35.84153505760281;33.705882352941174
71642;BME280;60657;50.122;14.468;2022-08-03T10:37:36;98323.83447684319;;;35.77744716563669;32.67589837491417
71642;BME280;60657;50.122;14.468;2022-08-03T10:40:41;98322.69706637222;;;35.30212863355459;33.71541924162661
71642;BME280;60657;50.122;14.468;2022-08-03T10:43:46;98315.23007839671;;;35.262073701075764;33.744029907682915
71642;BME280;60657;50.122;14.468;2022-08-03T10:46:52;98313.30684061254;;;35.54245822842756;32.838025482566565
71642;BME280;60657;50.122;14.468;2022-08-03T10:49:56;98318.11442233314;;;35.360875867856876;32.76745250629435
71642;BME280;60657;50.122;14.468;2022-08-03T10:53:02;98312.57008193714;;;35.3395132372015;33.06309605554284
71642;BME280;60657;50.122;14.468;2022-08-03T10:56:05;98311.45154760194;;;35.63859006637675;32.97154192416266
71642;BME280;60657;50.122;14.468;2022-08-03T11:00:11;98300.5621474649;;;35.60120546272984;32.78652628366522
71642;BME280;60657;50.122;14.468;2022-08-03T11:03:13;98302.72414397035;;;35.31013962005035;33.18326085297932
71642;BME280;60657;50.122;14.468;2022-08-03T11:06:15;98310.33991218409;;;35.4863813229572;34.10452429999237